Time;durP1;ratioP1;P1;durP2;ratioP2;P2;SDS_P1;SDS_P2;PMS_P1;PMS_P2;Temp;Humidity;BMP_temperature;BMP_pressure;BME280_temperature;BME280_humidity;BME280_pressure;Samples;Min_cycle;Max_cycle;Signal;HPM_P1;HPM_P2
2023/06/20 00:00:07;;;;;;;21.35;19.20;;;;;;;16.93;nan;100645.69;5007101;28;20042;-83
2023/06/20 00:02:34;;;;;;;20.83;18.77;;;;;;;16.82;nan;100644.41;4994291;28;20040;-82
2023/06/20 00:05:03;;;;;;;20.98;18.88;;;;;;;16.73;nan;100665.28;5001537;28;20037;-82
2023/06/20 00:07:32;;;;;;;18.92;17.00;;;;;;;16.70;nan;100663.63;5029975;28;20033;-82
2023/06/20 00:09:59;;;;;;;20.60;17.77;;;;;;;16.70;nan;100660.09;4997322;28;20046;-83
2023/06/20 00:12:26;;;;;;;21.27;19.05;;;;;;;16.65;nan;100654.94;4999095;28;20056;-84
2023/06/20 00:14:53;;;;;;;21.65;19.40;;;;;;;16.66;nan;100650.47;4992737;28;20041;-83
2023/06/20 00:17:20;;;;;;;26.02;19.77;;;;;;;16.63;nan;100659.47;5005029;28;20055;-83
2023/06/20 00:19:47;;;;;;;21.10;19.00;;;;;;;16.53;nan;100660.81;5002579;28;20044;-82
2023/06/20 00:22:13;;;;;;;21.50;19.17;;;;;;;16.56;nan;100650.00;4994005;28;20038;-82
2023/06/20 00:24:41;;;;;;;21.92;19.65;;;;;;;16.50;nan;100655.63;5002159;28;20032;-82
2023/06/20 00:27:07;;;;;;;22.00;19.70;;;;;;;16.45;nan;100657.63;5028220;28;20504;-81
2023/06/20 00:29:34;;;;;;;22.88;19.92;;;;;;;16.48;nan;100654.81;5013953;28;20037;-81
2023/06/20 00:32:01;;;;;;;22.38;20.08;;;;;;;16.38;nan;100654.38;4977631;28;20056;-83
2023/06/20 00:34:28;;;;;;;22.60;20.27;;;;;;;16.32;nan;100663.53;5005466;28;20056;-82
2023/06/20 00:36:55;;;;;;;24.35;19.92;;;;;;;16.41;nan;100656.03;5023848;28;20037;-81
2023/06/20 00:39:22;;;;;;;22.73;20.33;;;;;;;16.42;nan;100649.78;5002404;28;20537;-82
2023/06/20 00:41:49;;;;;;;21.58;19.35;;;;;;;16.32;nan;100655.53;5002194;28;20037;-84
2023/06/20 00:44:16;;;;;;;21.77;19.48;;;;;;;16.24;nan;100652.31;5003997;28;20043;-82
2023/06/20 00:46:43;;;;;;;22.55;20.15;;;;;;;16.18;nan;100655.25;5008317;28;20041;-82
2023/06/20 00:49:11;;;;;;;23.08;20.35;;;;;;;16.18;nan;100646.41;5013925;28;20041;-82
2023/06/20 00:51:38;;;;;;;23.05;20.50;;;;;;;16.12;nan;100654.66;4978277;28;20044;-82
2023/06/20 00:54:05;;;;;;;22.13;19.92;;;;;;;16.07;nan;100654.88;4974726;28;20052;-82
2023/06/20 00:56:33;;;;;;;22.45;20.13;;;;;;;16.00;nan;100658.72;5006881;28;20063;-82
2023/06/20 00:59:02;;;;;;;23.80;21.25;;;;;;;16.07;nan;100662.00;4997489;28;20045;-82
2023/06/20 01:01:31;;;;;;;23.73;21.23;;;;;;;16.00;nan;100664.03;4989534;28;20037;-82
2023/06/20 01:04:00;;;;;;;23.30;20.50;;;;;;;16.03;nan;100662.09;4982636;28;20044;-82
2023/06/20 01:06:35;;;;;;;23.48;20.98;;;;;;;16.04;nan;100658.50;5009994;28;20034;-83
2023/06/20 01:09:20;;;;;;;23.92;21.15;;;;;;;15.99;nan;100651.66;5014520;28;20052;-81
2023/06/20 01:11:59;;;;;;;24.30;21.25;;;;;;;15.89;nan;100645.88;4995300;28;20387;-82
2023/06/20 01:14:46;;;;;;;23.38;20.95;;;;;;;16.00;nan;100642.72;5011125;28;20045;-82
2023/06/20 01:17:20;;;;;;;24.95;22.33;;;;;;;15.92;nan;100639.53;4996438;28;20042;-82
2023/06/20 01:20:06;;;;;;;23.88;21.33;;;;;;;15.89;nan;100632.53;4999949;28;20037;-83
2023/06/20 01:22:34;;;;;;;24.13;21.52;;;;;;;15.81;nan;100629.34;5000360;28;20046;-82
2023/06/20 01:25:05;;;;;;;25.17;22.48;;;;;;;15.84;nan;100631.84;5010102;28;20132;-82
2023/06/20 01:27:38;;;;;;;22.08;19.52;;;;;;;15.79;nan;100625.84;5010583;28;20052;-82
2023/06/20 01:30:23;;;;;;;23.73;21.10;;;;;;;15.85;nan;100630.06;5001715;28;20046;-83
2023/06/20 01:32:52;;;;;;;23.77;21.17;;;;;;;15.81;nan;100623.13;5002686;28;20048;-82
2023/06/20 01:35:25;;;;;;;23.35;20.63;;;;;;;15.80;nan;100624.91;5000263;28;20042;-81
2023/06/20 01:37:58;;;;;;;22.20;19.87;;;;;;;15.82;nan;100620.41;5008379;28;20044;-83
2023/06/20 01:40:26;;;;;;;22.75;20.02;;;;;;;15.82;nan;100625.75;5002343;28;20038;-83
2023/06/20 01:42:58;;;;;;;22.92;20.45;;;;;;;15.72;nan;100619.03;4976558;28;20046;-83
2023/06/20 01:45:27;;;;;;;22.90;20.35;;;;;;;15.69;nan;100620.03;4990170;28;20048;-83
2023/06/20 01:47:59;;;;;;;23.85;21.08;;;;;;;15.74;nan;100612.75;4992939;28;20072;-83
2023/06/20 01:50:28;;;;;;;23.17;20.77;;;;;;;15.79;nan;100606.34;4999522;28;20044;-83
2023/06/20 01:52:56;;;;;;;22.38;19.73;;;;;;;15.72;nan;100608.38;5010860;28;20455;-83
2023/06/20 01:55:24;;;;;;;22.00;19.60;;;;;;;15.64;nan;100616.72;4997747;28;20038;-82
2023/06/20 01:57:54;;;;;;;22.02;19.48;;;;;;;15.59;nan;100610.69;5013288;28;20084;-83
2023/06/20 02:00:23;;;;;;;23.38;20.88;;;;;;;15.56;nan;100612.63;4998166;28;20034;-83
2023/06/20 02:02:50;;;;;;;23.65;20.98;;;;;;;15.53;nan;100613.59;4996686;28;20045;-82
2023/06/20 02:05:18;;;;;;;24.38;21.70;;;;;;;15.63;nan;100608.78;4992009;28;20033;-83
2023/06/20 02:07:46;;;;;;;24.65;21.35;;;;;;;15.50;nan;100619.06;5017160;28;20044;-83
2023/06/20 02:10:13;;;;;;;24.15;21.50;;;;;;;15.51;nan;100618.13;4977639;28;20045;-83
2023/06/20 02:12:41;;;;;;;24.05;21.48;;;;;;;15.44;nan;100611.31;4983030;28;20042;-83
2023/06/20 02:15:09;;;;;;;24.67;20.50;;;;;;;15.39;nan;100613.31;5000755;28;20042;-83
2023/06/20 02:17:37;;;;;;;22.42;19.77;;;;;;;15.46;nan;100614.78;4997853;28;20041;-83
2023/06/20 02:20:05;;;;;;;22.20;19.90;;;;;;;15.40;nan;100613.25;4991853;28;20049;-83
2023/06/20 02:22:32;;;;;;;23.52;21.13;;;;;;;15.37;nan;100608.03;5000284;28;20056;-83
2023/06/20 02:25:04;;;;;;;23.45;21.05;;;;;;;15.35;nan;100607.25;5000373;28;20041;-83
2023/06/20 02:27:32;;;;;;;23.05;20.65;;;;;;;15.33;nan;100616.22;5028158;28;20045;-85
2023/06/20 02:30:00;;;;;;;26.17;21.85;;;;;;;15.25;nan;100615.66;4981317;28;20034;-84
2023/06/20 02:32:28;;;;;;;23.02;20.60;;;;;;;15.19;nan;100616.78;5009084;28;20399;-83
2023/06/20 02:34:56;;;;;;;23.48;21.08;;;;;;;15.16;nan;100615.13;4990937;28;20045;-83
2023/06/20 02:37:24;;;;;;;23.63;21.13;;;;;;;15.10;nan;100635.78;4995048;28;20045;-83
2023/06/20 02:39:57;;;;;;;23.08;20.58;;;;;;;15.04;nan;100642.19;5019520;28;20038;-82
2023/06/20 02:42:24;;;;;;;25.30;21.98;;;;;;;15.20;nan;100647.78;5007800;28;20057;-83
2023/06/20 02:44:51;;;;;;;23.10;20.02;;;;;;;15.15;nan;100637.34;4992405;28;20497;-83
2023/06/20 02:47:33;;;;;;;24.05;21.23;;;;;;;15.13;nan;100649.84;4993672;28;20034;-83
2023/06/20 02:50:19;;;;;;;23.40;21.00;;;;;;;15.16;nan;100651.50;4978778;28;20050;-84
2023/06/20 02:52:51;;;;;;;27.05;24.00;;;;;;;15.18;nan;100641.66;4984521;28;20048;-83
2023/06/20 02:55:27;;;;;;;25.20;22.35;;;;;;;15.16;nan;100647.03;5003887;28;20045;-83
2023/06/20 02:57:59;;;;;;;24.20;21.52;;;;;;;15.13;nan;100647.19;5006159;28;20026;-83
2023/06/20 03:00:26;;;;;;;24.45;21.85;;;;;;;15.23;nan;100642.34;5007523;28;20040;-82
2023/06/20 03:03:00;;;;;;;22.75;20.27;;;;;;;15.28;nan;100643.00;5016058;28;20042;-83
2023/06/20 03:05:30;;;;;;;24.27;20.90;;;;;;;15.22;nan;100651.28;5009828;28;20030;-83
2023/06/20 03:07:58;;;;;;;24.25;20.70;;;;;;;15.18;nan;100660.28;4995682;28;20030;-83
2023/06/20 03:10:25;;;;;;;24.38;21.63;;;;;;;15.23;nan;100654.78;5002472;28;20052;-83
2023/06/20 03:12:53;;;;;;;25.75;22.63;;;;;;;15.16;nan;100663.00;4992337;28;20049;-82
2023/06/20 03:15:20;;;;;;;25.55;22.00;;;;;;;15.26;nan;100652.88;4987245;28;20034;-83
2023/06/20 03:17:48;;;;;;;25.38;22.60;;;;;;;15.27;nan;100653.72;5005065;28;20410;-83
2023/06/20 03:20:15;;;;;;;24.83;21.98;;;;;;;15.27;nan;100646.59;5009928;28;20046;-83
2023/06/20 03:22:42;;;;;;;23.85;21.35;;;;;;;15.24;nan;100654.72;4992240;28;20441;-84
2023/06/20 03:25:09;;;;;;;23.58;20.67;;;;;;;15.32;nan;100651.75;4989310;28;20031;-83
2023/06/20 03:27:36;;;;;;;23.70;20.90;;;;;;;15.34;nan;100653.44;4993354;28;20048;-82
2023/06/20 03:30:03;;;;;;;24.90;22.20;;;;;;;15.32;nan;100659.75;5000546;28;20050;-83
2023/06/20 03:32:30;;;;;;;24.30;21.40;;;;;;;15.31;nan;100661.53;5002766;28;20030;-84
2023/06/20 03:34:57;;;;;;;24.48;21.70;;;;;;;15.34;nan;100661.41;5021135;28;20037;-83
2023/06/20 03:37:24;;;;;;;24.48;21.15;;;;;;;15.37;nan;100652.44;4996225;28;20038;-84
2023/06/20 03:39:51;;;;;;;26.08;22.05;;;;;;;15.36;nan;100656.88;4997923;28;20671;-83
2023/06/20 03:42:18;;;;;;;24.75;22.05;;;;;;;15.43;nan;100654.84;4980517;28;20044;-83
2023/06/20 03:44:45;;;;;;;23.98;21.48;;;;;;;15.41;nan;100654.91;4981798;28;20037;-84
2023/06/20 03:47:12;;;;;;;24.40;21.90;;;;;;;15.40;nan;100655.84;4987993;28;20030;-84
2023/06/20 03:49:39;;;;;;;22.90;20.42;;;;;;;15.42;nan;100656.66;4993894;28;20038;-84
2023/06/20 03:52:08;;;;;;;22.27;19.88;;;;;;;15.44;nan;100657.44;4993178;28;20058;-84
2023/06/20 03:54:37;;;;;;;25.15;22.45;;;;;;;15.56;nan;100658.75;4978066;28;20045;-83
2023/06/20 03:57:04;;;;;;;23.83;20.48;;;;;;;15.56;nan;100660.56;5019211;28;20056;-83
2023/06/20 03:59:31;;;;;;;24.17;21.58;;;;;;;15.60;nan;100660.34;5005357;28;20787;-83
2023/06/20 04:02:01;;;;;;;25.13;21.17;;;;;;;15.65;nan;100655.75;4990516;28;20037;-84
2023/06/20 04:04:29;;;;;;;23.45;20.50;;;;;;;15.73;nan;100661.63;4986671;28;20042;-84
2023/06/20 04:06:56;;;;;;;23.38;20.88;;;;;;;15.81;nan;100652.41;4988560;28;20049;-84
2023/06/20 04:09:26;;;;;;;23.45;20.88;;;;;;;15.92;nan;100663.50;4990847;28;20056;-84
2023/06/20 04:11:53;;;;;;;23.08;20.58;;;;;;;16.08;nan;100656.59;4986937;28;20049;-83
2023/06/20 04:14:21;;;;;;;23.17;20.67;;;;;;;16.19;nan;100659.66;5006709;28;20038;-84
2023/06/20 04:16:49;;;;;;;25.60;22.45;;;;;;;16.26;nan;100661.13;4987218;28;20092;-84
2023/06/20 04:19:17;;;;;;;25.45;22.75;;;;;;;16.38;nan;100658.84;5002747;28;20491;-83
2023/06/20 04:21:44;;;;;;;22.88;20.48;;;;;;;16.43;nan;100656.84;4999003;28;20044;-83
2023/06/20 04:24:11;;;;;;;23.17;20.88;;;;;;;16.50;nan;100658.31;5011444;28;20042;-83
2023/06/20 04:26:38;;;;;;;24.40;21.77;;;;;;;16.63;nan;100658.59;5005805;28;20049;-84
2023/06/20 04:29:05;;;;;;;22.95;20.65;;;;;;;16.71;nan;100654.66;5002193;28;20042;-84
2023/06/20 04:31:33;;;;;;;23.17;20.50;;;;;;;16.64;nan;100657.66;5011211;28;20044;-84
2023/06/20 04:34:00;;;;;;;22.17;19.85;;;;;;;16.72;nan;100653.72;4998793;28;20045;-84
2023/06/20 04:36:28;;;;;;;22.75;20.40;;;;;;;16.75;nan;100653.63;5005233;28;20045;-83
2023/06/20 04:38:55;;;;;;;22.52;20.17;;;;;;;16.83;nan;100650.59;5004517;28;20045;-85
2023/06/20 04:41:22;;;;;;;22.30;20.00;;;;;;;16.90;nan;100657.38;5001595;28;20161;-83
2023/06/20 04:43:49;;;;;;;21.85;19.52;;;;;;;16.93;nan;100661.69;4998520;28;20030;-84
2023/06/20 04:46:16;;;;;;;21.33;19.10;;;;;;;17.04;nan;100657.56;5001223;28;20044;-84
2023/06/20 04:48:45;;;;;;;21.55;19.23;;;;;;;17.05;nan;100650.44;5014624;28;20446;-83
2023/06/20 04:51:13;;;;;;;23.00;20.60;;;;;;;17.14;nan;100653.53;4989495;28;20057;-84
2023/06/20 04:53:40;;;;;;;23.35;20.38;;;;;;;17.24;nan;100659.31;4987649;28;20042;-83
2023/06/20 04:56:07;;;;;;;23.15;20.30;;;;;;;17.29;nan;100657.28;5022291;28;20422;-84
2023/06/20 04:58:34;;;;;;;24.50;20.77;;;;;;;17.33;nan;100660.69;4999904;28;20040;-84
2023/06/20 05:01:03;;;;;;;22.33;19.92;;;;;;;17.49;nan;100663.44;5000584;28;20056;-84
2023/06/20 05:03:30;;;;;;;23.20;19.42;;;;;;;17.67;nan;100666.09;5018882;28;20041;-84
2023/06/20 05:05:57;;;;;;;22.75;20.45;;;;;;;17.81;nan;100673.44;5000596;28;20034;-84
2023/06/20 05:08:24;;;;;;;21.92;19.70;;;;;;;18.01;nan;100672.44;5004929;28;20120;-84
2023/06/20 05:10:51;;;;;;;21.02;18.88;;;;;;;18.21;nan;100679.44;5017894;28;20168;-85
2023/06/20 05:13:18;;;;;;;23.02;20.55;;;;;;;18.39;nan;100675.78;4982752;28;20475;-84
2023/06/20 05:15:45;;;;;;;22.20;19.77;;;;;;;18.51;nan;100677.84;5019107;28;20085;-84
2023/06/20 05:18:13;;;;;;;21.48;19.20;;;;;;;18.65;nan;100686.91;5000100;28;20121;-84
2023/06/20 05:20:42;;;;;;;20.60;18.58;;;;;;;18.73;nan;100682.06;5003075;28;20113;-84
2023/06/20 05:23:09;;;;;;;19.95;17.98;;;;;;;18.82;nan;100681.56;5005739;28;20044;-85
2023/06/20 05:25:37;;;;;;;21.70;19.52;;;;;;;18.90;nan;100687.34;5020320;28;20025;-83
2023/06/20 05:28:04;;;;;;;23.00;19.52;;;;;;;19.00;nan;100677.00;5010560;28;20067;-85
2023/06/20 05:30:32;;;;;;;21.67;19.17;;;;;;;19.06;nan;100690.94;5000930;28;20124;-84
2023/06/20 05:32:59;;;;;;;21.33;18.33;;;;;;;19.16;nan;100680.56;5003233;28;20037;-84
2023/06/20 05:35:26;;;;;;;21.60;19.40;;;;;;;19.29;nan;100680.75;4996200;28;20052;-83
2023/06/20 05:37:53;;;;;;;21.60;19.45;;;;;;;19.47;nan;100679.72;5025819;28;20033;-83
2023/06/20 05:40:20;;;;;;;20.67;18.55;;;;;;;19.87;nan;100682.81;5007158;28;20112;-83
2023/06/20 05:42:47;;;;;;;20.80;18.77;;;;;;;20.17;nan;100680.97;4996844;28;20039;-84
2023/06/20 05:45:14;;;;;;;19.27;17.38;;;;;;;20.31;nan;100690.03;5002989;28;20483;-83
2023/06/20 05:47:43;;;;;;;19.80;17.65;;;;;;;20.76;nan;100689.91;5012456;28;20036;-83
2023/06/20 05:50:11;;;;;;;20.55;18.45;;;;;;;20.89;nan;100698.06;5015992;28;20042;-84
2023/06/20 05:52:42;;;;;;;20.27;18.17;;;;;;;20.85;nan;100693.88;5011622;28;20044;-83
2023/06/20 05:55:09;;;;;;;21.90;19.65;;;;;;;20.82;nan;100693.19;5010877;28;20030;-84
2023/06/20 05:57:37;;;;;;;19.33;17.35;;;;;;;20.67;nan;100685.09;5014180;28;20033;-84
2023/06/20 06:00:12;;;;;;;20.48;18.48;;;;;;;20.87;nan;100691.06;4993305;28;20382;-83
2023/06/20 06:02:39;;;;;;;21.45;19.33;;;;;;;20.91;nan;100689.91;5002605;28;20048;-84
2023/06/20 06:05:07;;;;;;;18.95;17.13;;;;;;;20.92;nan;100697.00;5006885;28;20048;-84
2023/06/20 06:07:34;;;;;;;19.90;17.88;;;;;;;21.00;nan;100697.38;5027320;28;20041;-84
2023/06/20 06:10:01;;;;;;;20.75;18.67;;;;;;;20.93;nan;100696.03;4979647;28;20052;-83
2023/06/20 06:12:28;;;;;;;19.70;17.80;;;;;;;20.93;nan;100698.72;5019463;28;20033;-83
2023/06/20 06:14:55;;;;;;;21.95;19.67;;;;;;;21.11;nan;100696.72;5005527;28;20041;-83
2023/06/20 06:17:22;;;;;;;19.77;17.77;;;;;;;21.22;nan;100691.53;5012238;28;20517;-83
2023/06/20 06:19:49;;;;;;;20.70;18.63;;;;;;;21.41;nan;100691.22;5029669;28;20513;-84
2023/06/20 06:22:20;;;;;;;19.65;17.75;;;;;;;21.35;nan;100695.16;4996334;28;20047;-83
2023/06/20 06:24:46;;;;;;;20.08;18.08;;;;;;;21.53;nan;100685.91;5004831;28;20048;-83
2023/06/20 06:27:13;;;;;;;20.23;18.13;;;;;;;21.71;nan;100682.97;4997365;28;20423;-84
2023/06/20 06:29:40;;;;;;;19.60;17.60;;;;;;;22.03;nan;100681.69;5014300;28;20038;-83
2023/06/20 06:32:08;;;;;;;19.92;18.02;;;;;;;22.25;nan;100685.63;4996565;28;20105;-82
2023/06/20 06:34:35;;;;;;;20.85;18.88;;;;;;;22.50;nan;100688.34;5006231;28;20037;-83
2023/06/20 06:37:01;;;;;;;25.45;19.10;;;;;;;22.37;nan;100693.72;5012676;28;20045;-83
2023/06/20 06:39:28;;;;;;;20.05;18.05;;;;;;;22.39;nan;100689.09;5008254;28;20041;-83
2023/06/20 06:41:55;;;;;;;21.15;19.05;;;;;;;22.56;nan;100693.31;4996927;28;20048;-83
2023/06/20 06:44:22;;;;;;;18.75;17.05;;;;;;;22.55;nan;100679.94;5002966;28;20055;-83
2023/06/20 06:46:49;;;;;;;20.10;17.55;;;;;;;22.62;nan;100684.81;5006428;28;20035;-85
2023/06/20 06:49:16;;;;;;;19.50;17.65;;;;;;;22.79;nan;100683.59;5013253;28;20045;-84
2023/06/20 06:51:44;;;;;;;20.90;18.90;;;;;;;23.00;nan;100683.94;5008562;28;20184;-83
2023/06/20 06:54:10;;;;;;;20.35;18.45;;;;;;;23.12;nan;100677.66;5015013;28;20046;-83
2023/06/20 06:56:37;;;;;;;21.13;19.02;;;;;;;23.28;nan;100686.31;4990366;28;20049;-83
2023/06/20 06:59:04;;;;;;;20.33;18.23;;;;;;;23.53;nan;100688.09;5030413;28;20045;-85
2023/06/20 07:01:31;;;;;;;21.08;19.00;;;;;;;23.82;nan;100690.50;5031493;28;20052;-84
2023/06/20 07:03:58;;;;;;;19.58;17.77;;;;;;;24.08;nan;100686.66;5014405;28;20041;-84
2023/06/20 07:06:25;;;;;;;20.52;18.52;;;;;;;24.24;nan;100686.38;5013813;28;20171;-84
2023/06/20 07:08:52;;;;;;;18.98;17.10;;;;;;;24.34;nan;100694.63;4991393;28;20041;-85
2023/06/20 07:11:19;;;;;;;18.38;16.77;;;;;;;24.49;nan;100693.44;4994046;28;20052;-84
2023/06/20 07:13:46;;;;;;;21.25;19.25;;;;;;;24.58;nan;100687.31;5000421;28;20036;-84
2023/06/20 07:16:13;;;;;;;19.67;17.80;;;;;;;24.61;nan;100697.03;4995829;28;20041;-84
2023/06/20 07:18:40;;;;;;;18.83;17.02;;;;;;;24.60;nan;100696.16;4996169;28;20052;-84
2023/06/20 07:21:07;;;;;;;18.90;17.02;;;;;;;24.65;nan;100685.88;4996726;28;20042;-84
2023/06/20 07:23:34;;;;;;;19.35;17.55;;;;;;;24.74;nan;100683.41;5007197;28;20052;-84
2023/06/20 07:26:01;;;;;;;19.02;17.13;;;;;;;24.71;nan;100688.06;4999972;28;20695;-84
2023/06/20 07:28:28;;;;;;;19.92;18.02;;;;;;;24.70;nan;100678.25;4995375;28;20042;-85
2023/06/20 07:30:56;;;;;;;19.73;17.85;;;;;;;24.88;nan;100680.47;4995106;28;20053;-84
2023/06/20 07:33:23;;;;;;;20.52;18.58;;;;;;;25.23;nan;100675.81;5005337;28;20044;-84
2023/06/20 07:35:50;;;;;;;19.10;17.30;;;;;;;25.59;nan;100672.91;5014418;28;20051;-84
2023/06/20 07:38:17;;;;;;;18.27;16.67;;;;;;;25.77;nan;100677.66;5015185;28;20041;-84
2023/06/20 07:40:46;;;;;;;19.85;17.83;;;;;;;25.89;nan;100674.91;4986176;28;20542;-84
2023/06/20 07:43:13;;;;;;;20.55;18.52;;;;;;;26.13;nan;100669.28;4993705;28;20041;-85
2023/06/20 07:45:40;;;;;;;19.02;17.23;;;;;;;26.49;nan;100678.84;5007323;28;20037;-86
2023/06/20 07:48:07;;;;;;;20.10;18.25;;;;;;;26.75;nan;100671.13;4992110;28;20133;-85
2023/06/20 07:50:34;;;;;;;20.42;18.42;;;;;;;26.97;nan;100668.22;5007375;28;20124;-84
2023/06/20 07:53:02;;;;;;;20.27;18.38;;;;;;;27.21;nan;100657.91;4998931;28;20125;-84
2023/06/20 07:55:31;;;;;;;21.10;18.88;;;;;;;27.31;nan;100667.94;5014757;28;20118;-84
2023/06/20 07:57:58;;;;;;;19.15;17.27;;;;;;;27.53;nan;100661.41;4991876;28;20125;-85
2023/06/20 08:00:26;;;;;;;18.90;17.20;;;;;;;27.77;nan;100662.75;4996053;28;20125;-84
2023/06/20 08:02:53;;;;;;;18.63;16.98;;;;;;;27.95;nan;100665.63;5005983;28;20113;-84
2023/06/20 08:05:21;;;;;;;18.90;17.20;;;;;;;27.97;nan;100666.31;4994057;28;20105;-85
2023/06/20 08:07:48;;;;;;;19.55;17.83;;;;;;;28.16;nan;100670.88;4995663;28;20106;-84
2023/06/20 08:10:17;;;;;;;18.77;17.17;;;;;;;28.45;nan;100667.31;5007227;28;20133;-83
2023/06/20 08:12:44;;;;;;;19.73;17.98;;;;;;;28.64;nan;100661.81;4997149;28;20040;-84
2023/06/20 08:15:11;;;;;;;18.88;17.17;;;;;;;28.65;nan;100657.22;4990609;28;20121;-84
2023/06/20 08:17:38;;;;;;;19.30;17.63;;;;;;;28.81;nan;100662.91;5013031;28;20121;-83
2023/06/20 08:20:07;;;;;;;19.10;17.30;;;;;;;28.37;nan;100664.47;4986200;28;20316;-84
2023/06/20 08:22:34;;;;;;;18.60;17.00;;;;;;;28.48;nan;100667.84;5002853;28;20052;-83
2023/06/20 08:25:01;;;;;;;17.52;15.93;;;;;;;28.29;nan;100665.19;4996181;28;20048;-84
2023/06/20 08:27:28;;;;;;;17.63;16.13;;;;;;;28.18;nan;100673.47;5014226;28;20041;-83
2023/06/20 08:29:55;;;;;;;18.05;16.45;;;;;;;27.97;nan;100676.34;4988402;28;20041;-84
2023/06/20 08:32:22;;;;;;;19.20;17.42;;;;;;;27.72;nan;100675.03;4982561;28;20054;-84
2023/06/20 08:34:49;;;;;;;19.85;18.05;;;;;;;27.55;nan;100673.84;5032643;28;20040;-83
2023/06/20 08:37:17;;;;;;;18.75;17.08;;;;;;;27.27;nan;100674.66;5001478;28;20049;-84
2023/06/20 08:39:44;;;;;;;18.42;16.63;;;;;;;27.20;nan;100683.31;5022392;28;20036;-83
2023/06/20 08:42:11;;;;;;;18.45;16.75;;;;;;;27.15;nan;100688.28;5030224;28;20049;-84
2023/06/20 08:44:38;;;;;;;20.05;18.15;;;;;;;26.95;nan;100686.47;5001501;28;20511;-84
2023/06/20 08:47:21;;;;;;;20.52;18.42;;;;;;;26.99;nan;100684.34;5021175;28;20495;-83
2023/06/20 08:49:48;;;;;;;19.60;17.85;;;;;;;26.69;nan;100685.22;5018161;28;20041;-84
2023/06/20 08:52:19;;;;;;;21.33;19.30;;;;;;;26.80;nan;100688.69;4994020;28;20041;-84
2023/06/20 08:54:46;;;;;;;21.35;19.25;;;;;;;27.19;nan;100687.03;5018307;28;20132;-84
2023/06/20 08:57:13;;;;;;;20.48;18.58;;;;;;;27.55;nan;100681.97;4988338;28;20125;-84
2023/06/20 08:59:40;;;;;;;20.88;19.02;;;;;;;27.79;nan;100684.34;4983112;28;20125;-83
2023/06/20 09:02:09;;;;;;;20.33;18.52;;;;;;;27.99;nan;100691.47;5013361;28;20488;-86
2023/06/20 09:04:37;;;;;;;20.33;18.48;;;;;;;28.01;nan;100694.06;4979430;28;20116;-85
2023/06/20 09:07:17;;;;;;;20.48;18.65;;;;;;;27.78;nan;100688.06;5012027;28;20093;-85
2023/06/20 09:09:45;;;;;;;20.35;18.50;;;;;;;27.76;nan;100685.47;4991449;28;20567;-84
2023/06/20 09:12:12;;;;;;;20.83;18.85;;;;;;;27.72;nan;100685.91;5033954;28;20093;-85
2023/06/20 09:14:39;;;;;;;20.08;18.27;;;;;;;27.65;nan;100685.56;5000276;28;20773;-84
2023/06/20 09:17:08;;;;;;;21.77;19.73;;;;;;;27.29;nan;100681.63;5000195;28;20096;-85
2023/06/20 09:19:43;;;;;;;20.58;18.55;;;;;;;27.35;nan;100680.22;5004571;28;20129;-85
2023/06/20 09:22:12;;;;;;;21.10;19.20;;;;;;;26.88;nan;100686.16;5010709;28;20109;-84
2023/06/20 09:24:44;;;;;;;21.40;19.38;;;;;;;26.91;nan;100683.19;5001843;28;20098;-84
2023/06/20 09:27:12;;;;;;;19.95;18.25;;;;;;;26.85;nan;100691.00;5003225;28;20113;-84
2023/06/20 09:29:52;;;;;;;21.05;19.17;;;;;;;26.46;nan;100687.22;4999822;28;20117;-85
2023/06/20 09:32:20;;;;;;;22.33;20.08;;;;;;;26.45;nan;100686.34;5004613;28;20224;-85
2023/06/20 09:34:48;;;;;;;21.40;19.17;;;;;;;26.27;nan;100682.50;5003269;28;20217;-84
2023/06/20 09:37:16;;;;;;;19.70;17.90;;;;;;;26.14;nan;100685.38;5000641;28;20125;-85
2023/06/20 09:39:44;;;;;;;20.85;18.95;;;;;;;26.07;nan;100682.34;4993226;28;20098;-85
2023/06/20 09:42:12;;;;;;;20.65;18.58;;;;;;;25.90;nan;100690.19;5017235;28;20093;-85
2023/06/20 09:44:40;;;;;;;20.67;18.77;;;;;;;25.79;nan;100686.50;4993522;28;20101;-85
2023/06/20 09:47:07;;;;;;;21.08;19.08;;;;;;;25.76;nan;100680.50;4992819;28;20121;-83
2023/06/20 09:49:35;;;;;;;21.17;19.25;;;;;;;25.70;nan;100681.84;4992708;28;20769;-83
2023/06/20 09:52:14;;;;;;;21.73;19.70;;;;;;;25.56;nan;100679.44;5006098;28;20777;-83
2023/06/20 09:54:51;;;;;;;20.23;18.50;;;;;;;25.53;nan;100685.94;5004840;28;20120;-84
2023/06/20 09:57:21;;;;;;;21.05;19.15;;;;;;;25.57;nan;100689.28;4998004;28;20623;-83
2023/06/20 09:59:50;;;;;;;21.38;19.35;;;;;;;25.62;nan;100686.19;5005666;28;20547;-83
2023/06/20 10:02:18;;;;;;;20.27;18.58;;;;;;;25.62;nan;100695.16;4996895;28;20026;-84
2023/06/20 10:04:46;;;;;;;20.75;18.83;;;;;;;25.67;nan;100690.22;5020276;28;20574;-84
2023/06/20 10:07:14;;;;;;;20.30;18.48;;;;;;;25.67;nan;100701.06;5023831;28;20034;-84
2023/06/20 10:09:41;;;;;;;22.17;20.08;;;;;;;25.78;nan;100714.56;5002954;28;20156;-83
2023/06/20 10:12:10;;;;;;;20.35;18.45;;;;;;;25.70;nan;100727.84;5004567;28;20113;-86
2023/06/20 10:14:37;;;;;;;21.05;18.95;;;;;;;25.66;nan;100742.63;5019984;28;20913;-84
2023/06/20 10:17:08;;;;;;;21.30;19.33;;;;;;;25.71;nan;100740.41;5016463;28;20121;-84
2023/06/20 10:19:50;;;;;;;21.83;20.02;;;;;;;25.76;nan;100743.63;5014491;28;20320;-83
2023/06/20 10:22:43;;;;;;;23.52;21.27;;;;;;;25.85;nan;100742.00;4980251;28;20479;-85
2023/06/20 10:25:18;;;;;;;21.70;19.77;;;;;;;25.93;nan;100744.06;4996524;28;20550;-84
2023/06/20 10:28:00;;;;;;;23.58;21.33;;;;;;;25.97;nan;100737.38;5025837;28;20033;-84
2023/06/20 10:30:46;;;;;;;24.73;22.30;;;;;;;26.00;nan;100748.84;4983013;28;20116;-85
2023/06/20 10:33:13;;;;;;;23.40;21.05;;;;;;;25.92;nan;100750.47;5002488;28;20463;-84
2023/06/20 10:36:01;;;;;;;22.40;20.27;;;;;;;25.91;nan;100756.88;5006882;28;20034;-84
2023/06/20 10:38:29;;;;;;;23.55;21.35;;;;;;;25.90;nan;100763.28;5002466;28;20045;-83
2023/06/20 10:41:10;;;;;;;23.65;21.35;;;;;;;25.90;nan;100772.25;4999392;28;20041;-85
2023/06/20 10:43:50;;;;;;;22.90;20.83;;;;;;;25.72;nan;100779.16;5015428;28;20495;-84
2023/06/20 10:46:27;;;;;;;22.45;20.38;;;;;;;25.52;nan;100778.06;4993097;28;20042;-83
2023/06/20 10:48:54;;;;;;;21.77;19.58;;;;;;;25.27;nan;100785.44;5015551;28;20038;-83
2023/06/20 10:51:21;;;;;;;22.23;20.10;;;;;;;25.19;nan;100782.50;5012809;28;20063;-82
2023/06/20 10:53:48;;;;;;;21.70;19.52;;;;;;;24.93;nan;100798.03;4984993;28;20098;-85
2023/06/20 10:56:25;;;;;;;21.00;18.95;;;;;;;24.56;nan;100789.25;4998565;28;20513;-86
2023/06/20 10:58:53;;;;;;;23.23;20.92;;;;;;;24.41;nan;100788.56;4985834;28;20148;-84
2023/06/20 11:01:25;;;;;;;22.63;20.50;;;;;;;24.22;nan;100795.44;5009732;28;20040;-84
2023/06/20 11:03:52;;;;;;;22.70;20.50;;;;;;;24.11;nan;100786.31;4985039;28;20071;-84
2023/06/20 11:06:19;;;;;;;22.58;20.42;;;;;;;24.08;nan;100799.19;5007773;28;20053;-84
2023/06/20 11:08:46;;;;;;;24.17;21.83;;;;;;;24.01;nan;100798.75;5000423;28;20491;-84
2023/06/20 11:11:13;;;;;;;22.25;20.08;;;;;;;23.92;nan;100794.06;5004708;28;20044;-84
2023/06/20 11:13:43;;;;;;;23.95;21.55;;;;;;;23.91;nan;100789.63;4993190;28;20118;-83
2023/06/20 11:16:19;;;;;;;22.48;20.38;;;;;;;23.76;nan;100783.53;5010219;28;20033;-84
2023/06/20 11:18:46;;;;;;;24.58;22.10;;;;;;;23.76;nan;100788.91;4983922;28;20049;-83
2023/06/20 11:21:16;;;;;;;22.55;20.50;;;;;;;23.59;nan;100783.88;5021807;28;20037;-83
2023/06/20 11:23:43;;;;;;;23.98;21.65;;;;;;;23.50;nan;100776.44;4975897;28;20038;-83
2023/06/20 11:26:09;;;;;;;24.02;21.85;;;;;;;23.32;nan;100770.56;4987454;28;20049;-82
2023/06/20 11:28:37;;;;;;;23.55;21.08;;;;;;;23.31;nan;100776.94;5016382;28;20037;-83
2023/06/20 11:31:10;;;;;;;22.80;20.60;;;;;;;23.27;nan;100780.78;5005942;28;20041;-83